sensor_id;sensor_type;location;lat;lon;timestamp;P1;durP1;ratioP1;P2;durP2;ratioP2
69594;SDS011;56800;52.142;5.364;2023-11-22T00:02:17;16.97;;;9.10;;
69594;SDS011;56800;52.142;5.364;2023-11-22T00:04:44;15.85;;;9.77;;
69594;SDS011;56800;52.142;5.364;2023-11-22T00:07:11;17.73;;;9.27;;
69594;SDS011;56800;52.142;5.364;2023-11-22T00:09:38;16.35;;;9.35;;
69594;SDS011;56800;52.142;5.364;2023-11-22T00:12:05;18.65;;;9.10;;
69594;SDS011;56800;52.142;5.364;2023-11-22T00:14:32;16.63;;;9.70;;
69594;SDS011;56800;52.142;5.364;2023-11-22T00:17:01;17.25;;;8.90;;
69594;SDS011;56800;52.142;5.364;2023-11-22T00:19:28;17.80;;;8.88;;
69594;SDS011;56800;52.142;5.364;2023-11-22T00:21:56;18.08;;;9.32;;
69594;SDS011;56800;52.142;5.364;2023-11-22T00:24:23;18.83;;;10.15;;
69594;SDS011;56800;52.142;5.364;2023-11-22T00:26:50;18.57;;;9.93;;
69594;SDS011;56800;52.142;5.364;2023-11-22T00:29:17;13.27;;;8.95;;
69594;SDS011;56800;52.142;5.364;2023-11-22T00:31:44;16.52;;;9.38;;
69594;SDS011;56800;52.142;5.364;2023-11-22T00:34:11;13.55;;;9.32;;
69594;SDS011;56800;52.142;5.364;2023-11-22T00:36:38;16.42;;;9.07;;
69594;SDS011;56800;52.142;5.364;2023-11-22T00:39:04;16.43;;;9.63;;
69594;SDS011;56800;52.142;5.364;2023-11-22T00:41:31;16.05;;;9.40;;
69594;SDS011;56800;52.142;5.364;2023-11-22T00:43:58;15.35;;;9.25;;
69594;SDS011;56800;52.142;5.364;2023-11-22T00:46:25;16.80;;;9.68;;
69594;SDS011;56800;52.142;5.364;2023-11-22T00:48:52;16.40;;;9.68;;
69594;SDS011;56800;52.142;5.364;2023-11-22T00:51:19;16.00;;;9.10;;
69594;SDS011;56800;52.142;5.364;2023-11-22T00:53:46;16.77;;;9.25;;
69594;SDS011;56800;52.142;5.364;2023-11-22T00:56:13;16.45;;;9.35;;
69594;SDS011;56800;52.142;5.364;2023-11-22T00:58:40;18.48;;;9.88;;
69594;SDS011;56800;52.142;5.364;2023-11-22T01:01:07;17.92;;;10.10;;
69594;SDS011;56800;52.142;5.364;2023-11-22T01:03:34;14.90;;;9.13;;
69594;SDS011;56800;52.142;5.364;2023-11-22T01:06:01;16.75;;;8.80;;
69594;SDS011;56800;52.142;5.364;2023-11-22T01:08:29;19.80;;;10.07;;
69594;SDS011;56800;52.142;5.364;2023-11-22T01:10:56;17.15;;;9.23;;
69594;SDS011;56800;52.142;5.364;2023-11-22T01:13:24;15.40;;;8.82;;
69594;SDS011;56800;52.142;5.364;2023-11-22T01:26:20;15.60;;;9.07;;
69594;SDS011;56800;52.142;5.364;2023-11-22T01:28:46;18.63;;;9.52;;
69594;SDS011;56800;52.142;5.364;2023-11-22T01:31:13;15.13;;;9.30;;
69594;SDS011;56800;52.142;5.364;2023-11-22T01:33:41;16.25;;;9.52;;
69594;SDS011;56800;52.142;5.364;2023-11-22T01:36:07;14.23;;;9.80;;
69594;SDS011;56800;52.142;5.364;2023-11-22T01:38:35;15.27;;;9.32;;
69594;SDS011;56800;52.142;5.364;2023-11-22T01:41:03;17.55;;;9.45;;
69594;SDS011;56800;52.142;5.364;2023-11-22T01:43:30;18.73;;;8.90;;
69594;SDS011;56800;52.142;5.364;2023-11-22T01:45:57;17.60;;;8.85;;
69594;SDS011;56800;52.142;5.364;2023-11-22T01:48:26;18.88;;;9.52;;
69594;SDS011;56800;52.142;5.364;2023-11-22T01:50:52;18.30;;;9.45;;
69594;SDS011;56800;52.142;5.364;2023-11-22T01:53:19;13.98;;;9.52;;
69594;SDS011;56800;52.142;5.364;2023-11-22T01:55:47;18.33;;;9.40;;
69594;SDS011;56800;52.142;5.364;2023-11-22T01:58:14;15.40;;;9.50;;
69594;SDS011;56800;52.142;5.364;2023-11-22T02:00:43;16.55;;;10.23;;
69594;SDS011;56800;52.142;5.364;2023-11-22T02:03:15;16.23;;;9.90;;
69594;SDS011;56800;52.142;5.364;2023-11-22T02:05:42;16.05;;;9.70;;
69594;SDS011;56800;52.142;5.364;2023-11-22T02:08:10;16.27;;;10.10;;
69594;SDS011;56800;52.142;5.364;2023-11-22T02:10:38;18.25;;;9.52;;
69594;SDS011;56800;52.142;5.364;2023-11-22T02:13:05;14.90;;;9.15;;
69594;SDS011;56800;52.142;5.364;2023-11-22T02:15:34;17.25;;;10.40;;
69594;SDS011;56800;52.142;5.364;2023-11-22T02:18:01;19.63;;;10.05;;
69594;SDS011;56800;52.142;5.364;2023-11-22T02:20:38;19.87;;;10.43;;
69594;SDS011;56800;52.142;5.364;2023-11-22T02:23:09;18.35;;;9.98;;
69594;SDS011;56800;52.142;5.364;2023-11-22T02:25:37;18.45;;;10.23;;
69594;SDS011;56800;52.142;5.364;2023-11-22T02:28:04;19.20;;;9.77;;
69594;SDS011;56800;52.142;5.364;2023-11-22T02:30:31;16.83;;;9.35;;
69594;SDS011;56800;52.142;5.364;2023-11-22T02:32:58;15.33;;;8.90;;
69594;SDS011;56800;52.142;5.364;2023-11-22T02:35:25;16.58;;;9.82;;
69594;SDS011;56800;52.142;5.364;2023-11-22T02:37:53;17.27;;;9.10;;
69594;SDS011;56800;52.142;5.364;2023-11-22T02:40:21;18.20;;;9.70;;
69594;SDS011;56800;52.142;5.364;2023-11-22T02:42:48;19.20;;;10.65;;
69594;SDS011;56800;52.142;5.364;2023-11-22T02:45:16;19.57;;;10.73;;
69594;SDS011;56800;52.142;5.364;2023-11-22T02:47:44;21.38;;;10.52;;
69594;SDS011;56800;52.142;5.364;2023-11-22T02:50:12;17.92;;;10.93;;
69594;SDS011;56800;52.142;5.364;2023-11-22T02:52:40;17.13;;;9.90;;
69594;SDS011;56800;52.142;5.364;2023-11-22T02:55:07;21.20;;;10.40;;
69594;SDS011;56800;52.142;5.364;2023-11-22T02:57:36;16.33;;;10.43;;
69594;SDS011;56800;52.142;5.364;2023-11-22T03:00:09;19.50;;;10.35;;
69594;SDS011;56800;52.142;5.364;2023-11-22T03:02:39;17.08;;;10.32;;
69594;SDS011;56800;52.142;5.364;2023-11-22T03:05:08;16.27;;;10.13;;
69594;SDS011;56800;52.142;5.364;2023-11-22T03:07:38;20.75;;;9.95;;
69594;SDS011;56800;52.142;5.364;2023-11-22T03:10:06;16.33;;;9.90;;
69594;SDS011;56800;52.142;5.364;2023-11-22T03:12:34;23.52;;;10.60;;
69594;SDS011;56800;52.142;5.364;2023-11-22T03:15:01;20.23;;;9.93;;
69594;SDS011;56800;52.142;5.364;2023-11-22T03:17:28;18.02;;;10.55;;
69594;SDS011;56800;52.142;5.364;2023-11-22T03:19:56;15.75;;;9.82;;
69594;SDS011;56800;52.142;5.364;2023-11-22T03:22:23;16.80;;;9.97;;
69594;SDS011;56800;52.142;5.364;2023-11-22T03:24:51;17.50;;;9.32;;
69594;SDS011;56800;52.142;5.364;2023-11-22T03:27:19;19.40;;;9.70;;
69594;SDS011;56800;52.142;5.364;2023-11-22T03:29:48;18.70;;;10.35;;
69594;SDS011;56800;52.142;5.364;2023-11-22T03:32:15;18.65;;;10.35;;
69594;SDS011;56800;52.142;5.364;2023-11-22T03:34:42;16.17;;;9.80;;
69594;SDS011;56800;52.142;5.364;2023-11-22T03:37:08;17.77;;;10.13;;
69594;SDS011;56800;52.142;5.364;2023-11-22T03:39:36;18.88;;;10.23;;
69594;SDS011;56800;52.142;5.364;2023-11-22T03:42:04;18.40;;;10.35;;
69594;SDS011;56800;52.142;5.364;2023-11-22T03:44:30;15.55;;;9.40;;
69594;SDS011;56800;52.142;5.364;2023-11-22T03:46:57;21.80;;;11.23;;
69594;SDS011;56800;52.142;5.364;2023-11-22T03:49:24;21.05;;;10.98;;
69594;SDS011;56800;52.142;5.364;2023-11-22T03:51:51;18.40;;;10.50;;
69594;SDS011;56800;52.142;5.364;2023-11-22T03:54:17;16.40;;;9.95;;
69594;SDS011;56800;52.142;5.364;2023-11-22T03:56:44;16.80;;;9.55;;
69594;SDS011;56800;52.142;5.364;2023-11-22T03:59:11;15.23;;;9.37;;
69594;SDS011;56800;52.142;5.364;2023-11-22T04:01:38;18.90;;;9.40;;
69594;SDS011;56800;52.142;5.364;2023-11-22T04:04:05;18.73;;;9.80;;
69594;SDS011;56800;52.142;5.364;2023-11-22T04:06:32;21.00;;;10.50;;
69594;SDS011;56800;52.142;5.364;2023-11-22T04:08:59;20.52;;;10.23;;
69594;SDS011;56800;52.142;5.364;2023-11-22T04:11:27;18.73;;;10.33;;
69594;SDS011;56800;52.142;5.364;2023-11-22T04:13:55;16.88;;;10.13;;
69594;SDS011;56800;52.142;5.364;2023-11-22T04:16:22;19.05;;;10.50;;
69594;SDS011;56800;52.142;5.364;2023-11-22T04:18:49;16.50;;;9.93;;
69594;SDS011;56800;52.142;5.364;2023-11-22T04:21:16;23.80;;;9.82;;
69594;SDS011;56800;52.142;5.364;2023-11-22T04:23:43;17.10;;;10.17;;
69594;SDS011;56800;52.142;5.364;2023-11-22T04:26:10;17.25;;;9.98;;
69594;SDS011;56800;52.142;5.364;2023-11-22T04:28:37;21.83;;;10.38;;
69594;SDS011;56800;52.142;5.364;2023-11-22T04:31:04;20.95;;;10.57;;
69594;SDS011;56800;52.142;5.364;2023-11-22T04:33:30;21.88;;;10.93;;
69594;SDS011;56800;52.142;5.364;2023-11-22T04:35:57;21.50;;;10.93;;
69594;SDS011;56800;52.142;5.364;2023-11-22T04:38:24;19.92;;;10.32;;
69594;SDS011;56800;52.142;5.364;2023-11-22T04:40:51;22.33;;;10.27;;
69594;SDS011;56800;52.142;5.364;2023-11-22T04:43:18;22.10;;;10.07;;
69594;SDS011;56800;52.142;5.364;2023-11-22T04:45:45;22.65;;;10.52;;
69594;SDS011;56800;52.142;5.364;2023-11-22T04:48:12;18.40;;;9.70;;
69594;SDS011;56800;52.142;5.364;2023-11-22T04:50:42;25.05;;;9.80;;
69594;SDS011;56800;52.142;5.364;2023-11-22T04:53:10;16.33;;;9.73;;
69594;SDS011;56800;52.142;5.364;2023-11-22T04:55:37;17.88;;;9.77;;
69594;SDS011;56800;52.142;5.364;2023-11-22T04:58:03;20.00;;;10.35;;
69594;SDS011;56800;52.142;5.364;2023-11-22T05:00:30;19.33;;;10.07;;
69594;SDS011;56800;52.142;5.364;2023-11-22T05:02:57;19.42;;;10.73;;
69594;SDS011;56800;52.142;5.364;2023-11-22T05:05:24;16.58;;;10.23;;
69594;SDS011;56800;52.142;5.364;2023-11-22T05:07:50;21.20;;;9.07;;
69594;SDS011;56800;52.142;5.364;2023-11-22T05:10:17;19.05;;;9.43;;
69594;SDS011;56800;52.142;5.364;2023-11-22T05:12:44;16.73;;;8.77;;
69594;SDS011;56800;52.142;5.364;2023-11-22T05:15:11;16.25;;;9.35;;
69594;SDS011;56800;52.142;5.364;2023-11-22T05:17:40;21.98;;;9.60;;
69594;SDS011;56800;52.142;5.364;2023-11-22T05:20:07;20.88;;;9.38;;
69594;SDS011;56800;52.142;5.364;2023-11-22T05:22:36;16.83;;;9.52;;
69594;SDS011;56800;52.142;5.364;2023-11-22T05:25:03;19.80;;;9.87;;
69594;SDS011;56800;52.142;5.364;2023-11-22T05:27:32;17.95;;;10.55;;
69594;SDS011;56800;52.142;5.364;2023-11-22T05:29:59;17.63;;;9.57;;
69594;SDS011;56800;52.142;5.364;2023-11-22T05:32:27;24.85;;;9.75;;
69594;SDS011;56800;52.142;5.364;2023-11-22T05:34:55;24.45;;;9.63;;
69594;SDS011;56800;52.142;5.364;2023-11-22T05:37:22;27.10;;;10.37;;
69594;SDS011;56800;52.142;5.364;2023-11-22T05:39:50;19.88;;;10.15;;
69594;SDS011;56800;52.142;5.364;2023-11-22T05:42:17;19.83;;;10.18;;
69594;SDS011;56800;52.142;5.364;2023-11-22T05:44:44;20.55;;;10.50;;
69594;SDS011;56800;52.142;5.364;2023-11-22T05:47:11;24.17;;;10.45;;
69594;SDS011;56800;52.142;5.364;2023-11-22T05:49:39;21.63;;;10.60;;
69594;SDS011;56800;52.142;5.364;2023-11-22T05:52:06;21.73;;;9.80;;
69594;SDS011;56800;52.142;5.364;2023-11-22T05:54:33;21.23;;;9.68;;
69594;SDS011;56800;52.142;5.364;2023-11-22T05:56:59;20.67;;;9.60;;
69594;SDS011;56800;52.142;5.364;2023-11-22T05:59:26;23.27;;;10.13;;
69594;SDS011;56800;52.142;5.364;2023-11-22T06:01:53;20.30;;;10.20;;
69594;SDS011;56800;52.142;5.364;2023-11-22T06:04:20;21.98;;;9.73;;
69594;SDS011;56800;52.142;5.364;2023-11-22T06:06:46;20.23;;;10.18;;
69594;SDS011;56800;52.142;5.364;2023-11-22T06:09:14;20.60;;;10.60;;
69594;SDS011;56800;52.142;5.364;2023-11-22T06:11:41;18.55;;;8.90;;
69594;SDS011;56800;52.142;5.364;2023-11-22T06:14:07;28.90;;;10.20;;
69594;SDS011;56800;52.142;5.364;2023-11-22T06:16:34;19.10;;;9.35;;
69594;SDS011;56800;52.142;5.364;2023-11-22T06:19:01;18.38;;;10.18;;
69594;SDS011;56800;52.142;5.364;2023-11-22T06:21:28;20.08;;;9.40;;
69594;SDS011;56800;52.142;5.364;2023-11-22T06:23:55;20.95;;;9.30;;
69594;SDS011;56800;52.142;5.364;2023-11-22T06:26:24;19.47;;;10.27;;
69594;SDS011;56800;52.142;5.364;2023-11-22T06:28:51;20.77;;;10.38;;
69594;SDS011;56800;52.142;5.364;2023-11-22T06:31:17;21.20;;;10.07;;
69594;SDS011;56800;52.142;5.364;2023-11-22T06:33:45;24.98;;;11.52;;
69594;SDS011;56800;52.142;5.364;2023-11-22T06:36:11;18.17;;;10.35;;
69594;SDS011;56800;52.142;5.364;2023-11-22T06:38:40;20.93;;;10.17;;
69594;SDS011;56800;52.142;5.364;2023-11-22T06:41:07;19.05;;;10.02;;
69594;SDS011;56800;52.142;5.364;2023-11-22T06:43:34;19.98;;;9.30;;
69594;SDS011;56800;52.142;5.364;2023-11-22T06:46:01;21.15;;;10.48;;
69594;SDS011;56800;52.142;5.364;2023-11-22T06:48:32;16.50;;;9.50;;
69594;SDS011;56800;52.142;5.364;2023-11-22T06:50:59;20.73;;;9.90;;
69594;SDS011;56800;52.142;5.364;2023-11-22T06:53:27;20.75;;;9.25;;
69594;SDS011;56800;52.142;5.364;2023-11-22T06:55:54;20.95;;;9.82;;
69594;SDS011;56800;52.142;5.364;2023-11-22T06:58:21;16.42;;;9.93;;
69594;SDS011;56800;52.142;5.364;2023-11-22T07:00:48;21.70;;;10.27;;
69594;SDS011;56800;52.142;5.364;2023-11-22T07:03:14;18.97;;;10.50;;
69594;SDS011;56800;52.142;5.364;2023-11-22T07:05:42;19.75;;;10.85;;
69594;SDS011;56800;52.142;5.364;2023-11-22T07:08:09;20.73;;;10.23;;
69594;SDS011;56800;52.142;5.364;2023-11-22T07:10:42;24.00;;;11.02;;
69594;SDS011;56800;52.142;5.364;2023-11-22T07:13:11;18.52;;;10.27;;
69594;SDS011;56800;52.142;5.364;2023-11-22T07:15:39;21.33;;;10.00;;
69594;SDS011;56800;52.142;5.364;2023-11-22T07:18:07;22.58;;;10.05;;
69594;SDS011;56800;52.142;5.364;2023-11-22T07:20:36;18.58;;;9.55;;
69594;SDS011;56800;52.142;5.364;2023-11-22T07:23:03;20.45;;;10.35;;
69594;SDS011;56800;52.142;5.364;2023-11-22T07:25:30;19.75;;;10.32;;
69594;SDS011;56800;52.142;5.364;2023-11-22T07:27:57;22.73;;;10.77;;
69594;SDS011;56800;52.142;5.364;2023-11-22T07:30:25;24.80;;;12.05;;
69594;SDS011;56800;52.142;5.364;2023-11-22T07:32:56;20.52;;;10.45;;
69594;SDS011;56800;52.142;5.364;2023-11-22T07:35:25;29.58;;;11.50;;
69594;SDS011;56800;52.142;5.364;2023-11-22T07:37:54;22.58;;;10.98;;
69594;SDS011;56800;52.142;5.364;2023-11-22T07:40:21;18.93;;;10.87;;
69594;SDS011;56800;52.142;5.364;2023-11-22T07:42:48;22.27;;;9.73;;
69594;SDS011;56800;52.142;5.364;2023-11-22T07:45:15;24.52;;;11.52;;
69594;SDS011;56800;52.142;5.364;2023-11-22T07:47:43;24.73;;;10.85;;
69594;SDS011;56800;52.142;5.364;2023-11-22T07:50:10;18.88;;;10.98;;
69594;SDS011;56800;52.142;5.364;2023-11-22T07:52:38;19.90;;;10.50;;
69594;SDS011;56800;52.142;5.364;2023-11-22T07:55:06;22.00;;;10.80;;
69594;SDS011;56800;52.142;5.364;2023-11-22T07:57:34;25.08;;;11.07;;
69594;SDS011;56800;52.142;5.364;2023-11-22T08:00:01;25.05;;;11.63;;
69594;SDS011;56800;52.142;5.364;2023-11-22T08:02:31;26.00;;;11.60;;
69594;SDS011;56800;52.142;5.364;2023-11-22T08:04:59;24.43;;;11.33;;
69594;SDS011;56800;52.142;5.364;2023-11-22T08:07:29;20.48;;;10.95;;
69594;SDS011;56800;52.142;5.364;2023-11-22T08:09:56;20.45;;;11.35;;
69594;SDS011;56800;52.142;5.364;2023-11-22T08:12:23;24.60;;;12.82;;
69594;SDS011;56800;52.142;5.364;2023-11-22T08:14:50;20.90;;;13.10;;
69594;SDS011;56800;52.142;5.364;2023-11-22T08:17:18;21.20;;;12.40;;
69594;SDS011;56800;52.142;5.364;2023-11-22T08:19:45;21.73;;;12.45;;
69594;SDS011;56800;52.142;5.364;2023-11-22T08:22:14;22.42;;;12.95;;
69594;SDS011;56800;52.142;5.364;2023-11-22T08:24:40;20.52;;;11.65;;
69594;SDS011;56800;52.142;5.364;2023-11-22T08:27:07;23.00;;;11.40;;
69594;SDS011;56800;52.142;5.364;2023-11-22T08:29:34;21.37;;;11.67;;
69594;SDS011;56800;52.142;5.364;2023-11-22T08:32:01;23.30;;;10.98;;
69594;SDS011;56800;52.142;5.364;2023-11-22T08:34:28;22.77;;;11.32;;
69594;SDS011;56800;52.142;5.364;2023-11-22T08:36:55;22.27;;;12.65;;
69594;SDS011;56800;52.142;5.364;2023-11-22T08:39:23;21.88;;;12.88;;
69594;SDS011;56800;52.142;5.364;2023-11-22T08:41:50;20.13;;;12.47;;
69594;SDS011;56800;52.142;5.364;2023-11-22T08:44:17;19.67;;;12.07;;
69594;SDS011;56800;52.142;5.364;2023-11-22T08:46:44;21.50;;;12.95;;
69594;SDS011;56800;52.142;5.364;2023-11-22T08:49:13;22.77;;;12.90;;
69594;SDS011;56800;52.142;5.364;2023-11-22T08:51:41;21.73;;;13.38;;
69594;SDS011;56800;52.142;5.364;2023-11-22T08:54:09;19.43;;;12.10;;
69594;SDS011;56800;52.142;5.364;2023-11-22T08:56:35;20.23;;;11.88;;
69594;SDS011;56800;52.142;5.364;2023-11-22T08:59:02;22.08;;;12.10;;
69594;SDS011;56800;52.142;5.364;2023-11-22T09:01:31;23.25;;;12.00;;
69594;SDS011;56800;52.142;5.364;2023-11-22T09:03:58;21.63;;;13.10;;
69594;SDS011;56800;52.142;5.364;2023-11-22T09:06:25;23.20;;;12.63;;
69594;SDS011;56800;52.142;5.364;2023-11-22T09:08:51;21.63;;;13.05;;
69594;SDS011;56800;52.142;5.364;2023-11-22T09:11:18;20.45;;;12.15;;
69594;SDS011;56800;52.142;5.364;2023-11-22T09:13:48;23.00;;;12.70;;
69594;SDS011;56800;52.142;5.364;2023-11-22T09:16:16;21.30;;;11.98;;
69594;SDS011;56800;52.142;5.364;2023-11-22T09:18:45;24.47;;;12.93;;
69594;SDS011;56800;52.142;5.364;2023-11-22T09:21:12;34.00;;;13.73;;
69594;SDS011;56800;52.142;5.364;2023-11-22T09:23:43;19.95;;;11.90;;
69594;SDS011;56800;52.142;5.364;2023-11-22T09:26:10;22.20;;;12.20;;
69594;SDS011;56800;52.142;5.364;2023-11-22T09:28:37;19.92;;;12.43;;
69594;SDS011;56800;52.142;5.364;2023-11-22T09:31:05;22.07;;;12.50;;
69594;SDS011;56800;52.142;5.364;2023-11-22T09:33:32;23.08;;;13.07;;
69594;SDS011;56800;52.142;5.364;2023-11-22T09:35:59;28.33;;;13.20;;
69594;SDS011;56800;52.142;5.364;2023-11-22T09:38:26;20.60;;;12.35;;
69594;SDS011;56800;52.142;5.364;2023-11-22T09:40:53;20.40;;;11.63;;
69594;SDS011;56800;52.142;5.364;2023-11-22T09:43:19;25.40;;;12.13;;
69594;SDS011;56800;52.142;5.364;2023-11-22T09:45:47;22.08;;;12.70;;
69594;SDS011;56800;52.142;5.364;2023-11-22T09:48:21;20.35;;;11.38;;
69594;SDS011;56800;52.142;5.364;2023-11-22T09:51:02;22.75;;;13.10;;
69594;SDS011;56800;52.142;5.364;2023-11-22T09:53:34;20.17;;;12.30;;
69594;SDS011;56800;52.142;5.364;2023-11-22T09:56:07;20.43;;;11.60;;
69594;SDS011;56800;52.142;5.364;2023-11-22T09:58:39;23.10;;;12.38;;
69594;SDS011;56800;52.142;5.364;2023-11-22T10:01:10;20.50;;;12.70;;
69594;SDS011;56800;52.142;5.364;2023-11-22T10:03:39;22.42;;;12.65;;
69594;SDS011;56800;52.142;5.364;2023-11-22T10:06:06;22.70;;;13.55;;
69594;SDS011;56800;52.142;5.364;2023-11-22T10:08:33;21.33;;;12.43;;
69594;SDS011;56800;52.142;5.364;2023-11-22T10:11:02;20.35;;;12.57;;
69594;SDS011;56800;52.142;5.364;2023-11-22T10:13:30;22.63;;;12.57;;
69594;SDS011;56800;52.142;5.364;2023-11-22T10:15:57;20.52;;;11.93;;
69594;SDS011;56800;52.142;5.364;2023-11-22T10:18:41;21.73;;;12.25;;
69594;SDS011;56800;52.142;5.364;2023-11-22T10:21:22;21.17;;;13.13;;
69594;SDS011;56800;52.142;5.364;2023-11-22T10:23:52;20.13;;;11.85;;
69594;SDS011;56800;52.142;5.364;2023-11-22T10:26:23;22.60;;;12.20;;
69594;SDS011;56800;52.142;5.364;2023-11-22T10:28:51;19.90;;;11.90;;
69594;SDS011;56800;52.142;5.364;2023-11-22T10:31:19;19.75;;;12.02;;
69594;SDS011;56800;52.142;5.364;2023-11-22T10:33:48;19.23;;;12.17;;
69594;SDS011;56800;52.142;5.364;2023-11-22T10:36:15;23.40;;;12.60;;
69594;SDS011;56800;52.142;5.364;2023-11-22T10:38:45;25.35;;;12.07;;
69594;SDS011;56800;52.142;5.364;2023-11-22T10:41:13;18.05;;;11.40;;
69594;SDS011;56800;52.142;5.364;2023-11-22T10:43:40;19.70;;;11.80;;
69594;SDS011;56800;52.142;5.364;2023-11-22T10:46:08;19.03;;;11.17;;
69594;SDS011;56800;52.142;5.364;2023-11-22T10:48:39;22.05;;;11.00;;
69594;SDS011;56800;52.142;5.364;2023-11-22T10:51:06;21.25;;;11.95;;
69594;SDS011;56800;52.142;5.364;2023-11-22T10:53:37;22.48;;;12.07;;
69594;SDS011;56800;52.142;5.364;2023-11-22T10:56:11;17.02;;;11.23;;
69594;SDS011;56800;52.142;5.364;2023-11-22T10:58:48;16.43;;;11.20;;
69594;SDS011;56800;52.142;5.364;2023-11-22T11:01:16;24.15;;;11.90;;
69594;SDS011;56800;52.142;5.364;2023-11-22T11:03:45;20.50;;;12.13;;
69594;SDS011;56800;52.142;5.364;2023-11-22T11:06:18;18.95;;;11.93;;
69594;SDS011;56800;52.142;5.364;2023-11-22T11:08:54;19.95;;;11.68;;
69594;SDS011;56800;52.142;5.364;2023-11-22T11:11:21;19.67;;;11.27;;
69594;SDS011;56800;52.142;5.364;2023-11-22T11:13:50;18.92;;;11.90;;
69594;SDS011;56800;52.142;5.364;2023-11-22T11:16:19;22.02;;;11.85;;
69594;SDS011;56800;52.142;5.364;2023-11-22T11:18:47;18.67;;;11.10;;
69594;SDS011;56800;52.142;5.364;2023-11-22T11:21:15;21.23;;;11.50;;
69594;SDS011;56800;52.142;5.364;2023-11-22T11:23:42;17.33;;;10.77;;
69594;SDS011;56800;52.142;5.364;2023-11-22T11:26:15;19.63;;;11.88;;
69594;SDS011;56800;52.142;5.364;2023-11-22T11:28:45;19.85;;;10.70;;
69594;SDS011;56800;52.142;5.364;2023-11-22T11:31:16;19.75;;;11.15;;
69594;SDS011;56800;52.142;5.364;2023-11-22T11:36:24;17.83;;;11.00;;
69594;SDS011;56800;52.142;5.364;2023-11-22T11:38:56;16.30;;;10.50;;
69594;SDS011;56800;52.142;5.364;2023-11-22T11:41:28;19.45;;;11.85;;
69594;SDS011;56800;52.142;5.364;2023-11-22T11:43:56;19.17;;;12.25;;
69594;SDS011;56800;52.142;5.364;2023-11-22T11:46:26;19.88;;;10.75;;
69594;SDS011;56800;52.142;5.364;2023-11-22T11:48:55;17.33;;;10.13;;
69594;SDS011;56800;52.142;5.364;2023-11-22T11:51:26;17.02;;;10.25;;
69594;SDS011;56800;52.142;5.364;2023-11-22T11:53:54;16.90;;;10.80;;
69594;SDS011;56800;52.142;5.364;2023-11-22T11:56:22;21.67;;;11.05;;
69594;SDS011;56800;52.142;5.364;2023-11-22T11:58:49;15.13;;;10.82;;
69594;SDS011;56800;52.142;5.364;2023-11-22T12:01:16;21.73;;;10.57;;
69594;SDS011;56800;52.142;5.364;2023-11-22T12:03:46;16.33;;;9.90;;
69594;SDS011;56800;52.142;5.364;2023-11-22T12:06:16;16.25;;;10.10;;
69594;SDS011;56800;52.142;5.364;2023-11-22T12:08:45;15.90;;;9.52;;
69594;SDS011;56800;52.142;5.364;2023-11-22T12:11:14;16.13;;;10.25;;
69594;SDS011;56800;52.142;5.364;2023-11-22T12:13:42;14.07;;;9.93;;
69594;SDS011;56800;52.142;5.364;2023-11-22T12:16:16;15.27;;;9.75;;
69594;SDS011;56800;52.142;5.364;2023-11-22T12:18:46;16.45;;;9.85;;
69594;SDS011;56800;52.142;5.364;2023-11-22T12:21:15;15.15;;;8.90;;
69594;SDS011;56800;52.142;5.364;2023-11-22T12:23:44;18.08;;;10.85;;
69594;SDS011;56800;52.142;5.364;2023-11-22T12:26:17;18.20;;;11.00;;
69594;SDS011;56800;52.142;5.364;2023-11-22T12:28:46;15.10;;;10.43;;
69594;SDS011;56800;52.142;5.364;2023-11-22T12:31:28;16.90;;;10.43;;
69594;SDS011;56800;52.142;5.364;2023-11-22T12:34:01;15.38;;;10.48;;
69594;SDS011;56800;52.142;5.364;2023-11-22T12:36:28;21.48;;;11.95;;
69594;SDS011;56800;52.142;5.364;2023-11-22T12:38:56;18.90;;;10.97;;
69594;SDS011;56800;52.142;5.364;2023-11-22T12:41:26;17.75;;;11.68;;
69594;SDS011;56800;52.142;5.364;2023-11-22T12:44:29;18.42;;;11.98;;
69594;SDS011;56800;52.142;5.364;2023-11-22T12:46:49;21.58;;;12.40;;
69594;SDS011;56800;52.142;5.364;2023-11-22T12:49:27;19.75;;;12.40;;
69594;SDS011;56800;52.142;5.364;2023-11-22T12:51:55;17.33;;;10.70;;
69594;SDS011;56800;52.142;5.364;2023-11-22T12:54:23;16.30;;;11.35;;
69594;SDS011;56800;52.142;5.364;2023-11-22T12:56:50;19.52;;;11.80;;
69594;SDS011;56800;52.142;5.364;2023-11-22T12:59:20;18.70;;;11.25;;
69594;SDS011;56800;52.142;5.364;2023-11-22T13:01:48;20.85;;;12.00;;
69594;SDS011;56800;52.142;5.364;2023-11-22T13:04:15;17.47;;;11.30;;
69594;SDS011;56800;52.142;5.364;2023-11-22T13:06:42;21.67;;;12.05;;
69594;SDS011;56800;52.142;5.364;2023-11-22T13:09:09;20.77;;;12.45;;
69594;SDS011;56800;52.142;5.364;2023-11-22T13:11:41;17.88;;;11.70;;
69594;SDS011;56800;52.142;5.364;2023-11-22T13:14:09;20.80;;;12.07;;
69594;SDS011;56800;52.142;5.364;2023-11-22T13:16:37;21.80;;;11.87;;
69594;SDS011;56800;52.142;5.364;2023-11-22T13:19:05;20.85;;;12.02;;
69594;SDS011;56800;52.142;5.364;2023-11-22T13:21:32;19.90;;;12.68;;
69594;SDS011;56800;52.142;5.364;2023-11-22T13:23:59;21.63;;;12.88;;
69594;SDS011;56800;52.142;5.364;2023-11-22T13:26:26;20.30;;;12.32;;
69594;SDS011;56800;52.142;5.364;2023-11-22T13:28:52;19.53;;;11.40;;
69594;SDS011;56800;52.142;5.364;2023-11-22T13:31:21;21.35;;;11.43;;
69594;SDS011;56800;52.142;5.364;2023-11-22T13:33:48;18.90;;;11.38;;
69594;SDS011;56800;52.142;5.364;2023-11-22T13:36:15;16.63;;;11.30;;
69594;SDS011;56800;52.142;5.364;2023-11-22T13:38:41;18.02;;;11.93;;
69594;SDS011;56800;52.142;5.364;2023-11-22T13:41:09;18.40;;;10.83;;
69594;SDS011;56800;52.142;5.364;2023-11-22T13:43:35;18.40;;;11.80;;
69594;SDS011;56800;52.142;5.364;2023-11-22T13:46:02;18.77;;;11.27;;
69594;SDS011;56800;52.142;5.364;2023-11-22T13:48:29;15.15;;;10.63;;
69594;SDS011;56800;52.142;5.364;2023-11-22T13:50:58;17.05;;;11.15;;
69594;SDS011;56800;52.142;5.364;2023-11-22T13:53:26;19.40;;;12.27;;
69594;SDS011;56800;52.142;5.364;2023-11-22T13:55:58;20.20;;;12.35;;
69594;SDS011;56800;52.142;5.364;2023-11-22T13:58:26;18.33;;;12.05;;
69594;SDS011;56800;52.142;5.364;2023-11-22T14:00:53;21.13;;;13.88;;
69594;SDS011;56800;52.142;5.364;2023-11-22T14:03:20;19.05;;;13.25;;
69594;SDS011;56800;52.142;5.364;2023-11-22T14:05:48;20.37;;;13.30;;
69594;SDS011;56800;52.142;5.364;2023-11-22T14:08:15;18.80;;;13.05;;
69594;SDS011;56800;52.142;5.364;2023-11-22T14:10:43;20.20;;;14.18;;
69594;SDS011;56800;52.142;5.364;2023-11-22T14:13:11;21.27;;;13.52;;
69594;SDS011;56800;52.142;5.364;2023-11-22T14:15:38;21.92;;;13.77;;
69594;SDS011;56800;52.142;5.364;2023-11-22T14:18:04;21.43;;;14.10;;
69594;SDS011;56800;52.142;5.364;2023-11-22T14:20:32;19.95;;;12.75;;
69594;SDS011;56800;52.142;5.364;2023-11-22T14:23:01;24.88;;;14.82;;
69594;SDS011;56800;52.142;5.364;2023-11-22T14:25:28;21.50;;;13.55;;
69594;SDS011;56800;52.142;5.364;2023-11-22T14:27:55;20.10;;;14.13;;
69594;SDS011;56800;52.142;5.364;2023-11-22T14:30:23;23.83;;;14.77;;
69594;SDS011;56800;52.142;5.364;2023-11-22T14:32:52;22.00;;;14.68;;
69594;SDS011;56800;52.142;5.364;2023-11-22T14:35:19;23.20;;;14.50;;
69594;SDS011;56800;52.142;5.364;2023-11-22T14:37:46;24.10;;;15.10;;
69594;SDS011;56800;52.142;5.364;2023-11-22T14:40:13;25.30;;;15.18;;
69594;SDS011;56800;52.142;5.364;2023-11-22T14:42:41;23.53;;;14.43;;
69594;SDS011;56800;52.142;5.364;2023-11-22T14:45:08;22.38;;;14.32;;